• Join FlightAware (Why Join?)
  • Login
  • US Flag 
07:35AM EST


 

Airport Tracker/Info


-or-


 

Live Flight TrackerFlight Track Log ✈ N560DP ✈ 09-Jul-2013 ✈ KTEB - KBWG

Flight Track Log - Related Links

Times and Time Zones

All times are in EDT time to prevent confusion due to time zone crossing. See the N560DP flight status page for this flight to view local times or setup timezone preferences in your user account.

Time Position Orientation Groundspeed Altitude Reporting Facility
EDT Latitude Longitude Course Direction KTS MPH feet Rate Location/Type
03:18PM 40.8167 -74.1333 246° West 203 234 1,500  Level New York TRACON
03:19PM 40.8167 -74.2000 270° West 186 214 2,700 1,800 Climbing New York TRACON
03:20PM 40.8167 -74.2667 270° West 213 245 5,200 2,700 Climbing New York TRACON
03:21PM 40.8000 -74.3500 255° West 259 298 8,100 2,760 Climbing New York TRACON
03:23PM 40.7331 -74.5311 244° Southwest 277 319 13,700 2,880 Climbing New York Center
03:24PM 40.6109 -74.8007 246° West  Level FlightAware Approximate
03:24PM 40.6986 -74.6306 245° Southwest 277 319 17,000  Level New York Center
03:25PM 40.6708 -74.7111 246° West 272 313 19,400 2,340 Climbing New York Center
03:26PM 40.6386 -74.8022 245° Southwest 272 313 21,800 2,220 Climbing New York Center
03:27PM 40.6061 -74.8986 246° West 278 320 23,900 2,100 Climbing New York Center
03:28PM 40.5669 -75.0028 244° Southwest 300 345 26,000 1,980 Climbing New York Center
03:29PM 40.5156 -75.1006 235° Southwest 315 362 28,000 1,980 Climbing New York Center
03:30PM 40.4558 -75.1950 230° Southwest 334 384 30,000 1,860 Climbing New York Center
03:31PM 40.3936 -75.2947 231° Southwest 344 396 31,700 1,620 Climbing New York Center
03:32PM 40.3292 -75.3967 230° Southwest 357 411 33,300 1,560 Climbing New York Center
03:33PM 40.2692 -75.4933 231° Southwest 357 411 34,900 1,500 Climbing New York Center
03:34PM 40.2067 -75.5950 231° Southwest 362 417 36,400 1,620 Climbing New York Center
03:35PM 40.1394 -75.7044 231° Southwest 362 417 38,300 1,500 Climbing New York Center
03:36PM 40.0792 -75.8033 231° Southwest 362 417 39,500 840 Climbing New York Center
03:37PM 40.0164 -75.9044 231° Southwest 362 417 40,000 240 Climbing New York Center
03:38PM 39.9469 -76.0103 229° Southwest 377 434 40,000  Level New York Center
03:39PM 39.8814 -76.1300 235° Southwest 394 453 40,000  Level New York Center
03:40PM 39.8433 -76.2731 251° West 413 475 40,000  Level New York Center
03:41PM 39.8097 -76.4136 253° West 413 475 40,000  Level New York Center
03:42PM 39.7775 -76.5625 254° West 419 482 40,000  Level New York Center
03:43PM 39.7431 -76.7081 253° West 424 488 40,000  Level New York Center
03:45PM 39.6917 -76.9183 252° West 432 497 40,000  Level Washington Center
03:46PM 39.6567 -77.0658 253° West 432 497 40,000  Level Washington Center
03:47PM 39.6217 -77.2106 253° West 437 503 40,000  Level Washington Center
03:48PM 39.5906 -77.3444 253° West 437 503 40,000  Level Washington Center
03:49PM 39.5569 -77.4892 253° West 437 503 40,000  Level Washington Center
03:50PM 39.5214 -77.6308 252° West 431 496 40,000  Level Washington Center
03:51PM 39.4897 -77.7750 254° West 426 490 40,000  Level Washington Center
03:52PM 39.4517 -77.9192 251° West 421 484 40,000  Level Washington Center
03:53PM 39.4156 -78.0603 252° West 421 484 40,000  Level Washington Center
03:54PM 39.3811 -78.2014 253° West 421 484 40,000  Level Washington Center
03:55PM 39.3447 -78.3450 252° West 421 484 40,000  Level Washington Center
03:56PM 39.3081 -78.4858 251° West 421 484 40,000  Level Washington Center
03:57PM 39.2733 -78.6292 253° West 421 484 40,000  Level Washington Center
03:58PM 39.2361 -78.7697 251° West 421 484 40,000  Level Washington Center
03:59PM 39.2011 -78.9156 253° West 421 484 40,000  Level Washington Center
04:00PM 39.1636 -79.0558 251° West 421 484 40,000  Level Washington Center
04:01PM 39.1283 -79.1958 252° West 421 484 40,000  Level Washington Center
04:02PM 39.0883 -79.3492 251° West 413 475 40,000  Level Washington Center
04:03PM 39.0544 -79.4917 253° West 418 481 40,000  Level Washington Center
04:04PM 39.0142 -79.6364 250° West 423 487 40,000  Level Washington Center
04:06PM 38.9311 -79.9369 251° West 416 479 40,000  Level Indianapolis Center
04:07PM 38.8942 -80.0739 251° West 419 482 40,000  Level Indianapolis Center
04:08PM 38.8506 -80.2322 251° West 418 481 40,000  Level Indianapolis Center
04:09PM 38.8125 -80.3747 251° West 421 484 40,000  Level Indianapolis Center
04:10PM 38.7728 -80.5172 250° West 423 487 40,000  Level Indianapolis Center
04:11PM 38.7336 -80.6575 250° West 420 483 40,000  Level Indianapolis Center
04:12PM 38.6964 -80.7994 251° West 420 483 40,000  Level Indianapolis Center
04:13PM 38.6558 -80.9403 250° West 421 484 40,000  Level Indianapolis Center
04:14PM 38.6078 -81.1111 250° West 422 486 40,000  Level Indianapolis Center
04:15PM 38.5667 -81.2533 250° West 422 486 40,000  Level Indianapolis Center
04:16PM 38.5261 -81.3986 250° West 427 491 40,000  Level Indianapolis Center
04:17PM 38.4847 -81.5450 250° West 430 495 40,000  Level Indianapolis Center
04:18PM 38.4439 -81.6892 250° West 428 493 40,000  Level Indianapolis Center
04:19PM 38.4028 -81.8322 250° West 427 491 40,000  Level Indianapolis Center
04:20PM 38.3622 -81.9742 250° West 425 489 40,000  Level Indianapolis Center
04:22PM 38.3203 -82.1181 250° West 430 495 40,000  Level Indianapolis Center
04:23PM 38.2783 -82.2608 250° West 430 495 40,000  Level Indianapolis Center
04:24PM 38.2369 -82.4053 250° West 432 497 40,000  Level Indianapolis Center
04:25PM 38.1864 -82.5731 249° West 429 494 40,000  Level Indianapolis Center
04:26PM 38.1453 -82.7156 250° West 429 494 40,000  Level Indianapolis Center
04:27PM 38.1022 -82.8567 249° West 428 493 40,000  Level Indianapolis Center
04:28PM 38.0583 -82.9997 249° West 433 498 40,000 -60 Level Indianapolis Center
04:29PM 38.0161 -83.1447 250° West 436 502 39,900 -1,080 Descending Indianapolis Center
04:30PM 37.9633 -83.3142 248° West 441 507 37,800 -1,860 Descending Indianapolis Center
04:31PM 37.9194 -83.4592 249° West 441 507 36,200 -960 Descending Indianapolis Center
04:32PM 37.8742 -83.6050 249° West 443 510 35,900 -540 Descending Indianapolis Center
04:33PM 37.8294 -83.7522 249° West 448 516 35,100 -1,200 Descending Indianapolis Center
04:34PM 37.7828 -83.9019 249° West 456 525 33,500 -1,860 Descending Indianapolis Center
04:35PM 37.7303 -84.0711 249° West 446 513 31,300 -2,040 Descending Indianapolis Center
04:36PM 37.6808 -84.2081 246° West 435 501 29,400 -1,740 Descending Indianapolis Center
04:37PM 37.6142 -84.3367 237° Southwest 438 504 27,800 -1,500 Descending Indianapolis Center
04:38PM 37.5517 -84.4644 238° Southwest 432 497 26,400 -1,320 Descending Indianapolis Center
04:39PM 37.4847 -84.5922 237° Southwest 437 503 25,100 -1,380 Descending Indianapolis Center
04:40PM 37.4122 -84.7425 239° Southwest 433 498 23,600 -1,260 Descending Indianapolis Center
04:41PM 37.3542 -84.8714 240° Southwest 423 487 22,500 -900 Descending Indianapolis Center
04:42PM 37.3219 -85.0125 254° West 420 483 21,800 -780 Descending Indianapolis Center
04:43PM 37.2883 -85.1497 253° West 413 475 20,900 -1,080 Descending Indianapolis Center
04:44PM 37.2531 -85.2872 252° West 413 475 19,600 -1,560 Descending Indianapolis Center
04:45PM 37.2203 -85.4158 252° West 392 451 17,700 -1,920 Descending Indianapolis Center
04:46PM 37.1878 -85.5525 253° West 367 422 15,700 -1,920 Descending Indianapolis Center
04:47PM 37.1575 -85.6706 252° West 359 413 13,800 -1,860 Descending Indianapolis Center
04:48PM 37.1261 -85.7919 252° West 361 415 11,900 -1,800 Descending Indianapolis Center
04:49PM 37.0972 -85.9058 252° West 347 399 10,100 -1,800 Descending Indianapolis Center
04:50PM 37.0719 -86.0053 252° West 305 351 8,300 -1,860 Descending Indianapolis Center
04:51PM 37.0453 -86.1089 252° West 270 311 6,300 -1,800 Descending Indianapolis Center
04:52PM 37.0264 -86.1911 254° West 248 285 4,600 -1,500 Descending Indianapolis Center
04:54PM 37.0142 -86.2644 258° West 223 257 3,300 -1,260 Descending Indianapolis Center
04:55PM 37.0058 -86.3300 261° West 200 230 2,100 -900 Descending Indianapolis Center
04:56PM 37.0003 -86.3981 264° West 189 217 1,500 -600 Descending Indianapolis Center
04:58PM 36.9645 -86.4197 238° Southwest  Level Estimated